Terminal Aerodrome Forecast
Issued by NWS

Home | Current Version | Previous Version | Text Only | Print | Product List | Glossary Off
Versions: 1 2 3 4 5 6 7 8 9 10 11 12 13 14 15 16 17 18

000
FTUS43 KMPX 271700
TAFAXN
TAF
KAXN 271720Z 2718/2818 18014G21KT P6SM FEW060
     FM280000 16008KT P6SM FEW060
     FM280500 17005KT P6SM SKC
     FM281500 17006KT P6SM FEW050 SCT250=

USA.gov is the U.S. government's official web portal to all federal, state and local government web resources and services.